sensor_id;sensor_type;location;lat;lon;timestamp;pressure;altitude;pressure_sealevel;temperature;humidity
23427;BME280;41148;45.420;10.952;2023-05-14T00:01:49;100710.28;;;13.45;93.79
23427;BME280;41148;45.420;10.952;2023-05-14T00:04:18;100711.16;;;13.46;93.33
23427;BME280;41148;45.420;10.952;2023-05-14T00:06:48;100710.22;;;13.47;93.32
23427;BME280;41148;45.420;10.952;2023-05-14T00:09:15;100693.50;;;13.42;94.01
23427;BME280;41148;45.420;10.952;2023-05-14T00:11:43;100704.88;;;13.47;94.50
23427;BME280;41148;45.420;10.952;2023-05-14T00:14:10;100700.59;;;13.43;96.25
23427;BME280;41148;45.420;10.952;2023-05-14T00:16:38;100696.09;;;13.43;95.04
23427;BME280;41148;45.420;10.952;2023-05-14T00:19:05;100687.06;;;13.46;95.45
23427;BME280;41148;45.420;10.952;2023-05-14T00:21:33;100689.69;;;13.48;94.07
23427;BME280;41148;45.420;10.952;2023-05-14T00:24:00;100680.63;;;13.52;93.74
23427;BME280;41148;45.420;10.952;2023-05-14T00:26:27;100681.59;;;13.49;93.84
23427;BME280;41148;45.420;10.952;2023-05-14T00:28:55;100675.19;;;13.53;94.80
23427;BME280;41148;45.420;10.952;2023-05-14T00:31:22;100674.44;;;13.50;94.36
23427;BME280;41148;45.420;10.952;2023-05-14T00:33:49;100678.84;;;13.51;95.48
23427;BME280;41148;45.420;10.952;2023-05-14T00:36:17;100673.56;;;13.49;96.27
23427;BME280;41148;45.420;10.952;2023-05-14T00:38:44;100671.31;;;13.38;97.51
23427;BME280;41148;45.420;10.952;2023-05-14T00:41:11;100665.09;;;13.38;96.83
23427;BME280;41148;45.420;10.952;2023-05-14T00:43:39;100657.88;;;13.40;98.32
23427;BME280;41148;45.420;10.952;2023-05-14T00:46:06;100658.94;;;13.36;99.37
23427;BME280;41148;45.420;10.952;2023-05-14T00:48:34;100657.88;;;13.40;99.20
23427;BME280;41148;45.420;10.952;2023-05-14T00:51:02;100657.13;;;13.36;99.16
23427;BME280;41148;45.420;10.952;2023-05-14T00:53:30;100651.03;;;13.33;100.00
23427;BME280;41148;45.420;10.952;2023-05-14T00:55:57;100647.44;;;13.34;100.00
23427;BME280;41148;45.420;10.952;2023-05-14T00:58:25;100646.72;;;13.29;100.00
23427;BME280;41148;45.420;10.952;2023-05-14T01:00:52;100638.03;;;13.24;100.00
23427;BME280;41148;45.420;10.952;2023-05-14T01:03:20;100638.97;;;13.23;100.00
23427;BME280;41148;45.420;10.952;2023-05-14T01:06:02;100635.41;;;13.22;100.00
23427;BME280;41148;45.420;10.952;2023-05-14T01:11:17;100624.38;;;13.30;100.00
23427;BME280;41148;45.420;10.952;2023-05-14T01:16:26;100626.31;;;13.26;100.00
23427;BME280;41148;45.420;10.952;2023-05-14T01:18:55;100611.00;;;13.30;100.00
23427;BME280;41148;45.420;10.952;2023-05-14T01:21:36;100626.13;;;13.31;100.00
23427;BME280;41148;45.420;10.952;2023-05-14T01:24:04;100614.88;;;13.23;100.00
23427;BME280;41148;45.420;10.952;2023-05-14T01:26:33;100618.97;;;13.31;100.00
23427;BME280;41148;45.420;10.952;2023-05-14T01:29:21;100615.50;;;13.29;100.00
23427;BME280;41148;45.420;10.952;2023-05-14T01:31:50;100612.25;;;13.21;100.00
23427;BME280;41148;45.420;10.952;2023-05-14T01:34:21;100613.13;;;13.22;100.00
23427;BME280;41148;45.420;10.952;2023-05-14T01:36:50;100613.69;;;13.30;100.00
23427;BME280;41148;45.420;10.952;2023-05-14T01:39:18;100614.34;;;13.13;100.00
23427;BME280;41148;45.420;10.952;2023-05-14T01:41:46;100606.34;;;13.11;100.00
23427;BME280;41148;45.420;10.952;2023-05-14T01:44:14;100594.06;;;13.07;99.78
23427;BME280;41148;45.420;10.952;2023-05-14T01:46:42;100598.66;;;13.04;100.00
23427;BME280;41148;45.420;10.952;2023-05-14T01:49:09;100593.25;;;13.05;100.00
23427;BME280;41148;45.420;10.952;2023-05-14T01:51:37;100598.66;;;13.04;99.55
23427;BME280;41148;45.420;10.952;2023-05-14T01:54:04;100590.66;;;13.04;100.00
23427;BME280;41148;45.420;10.952;2023-05-14T01:56:32;100582.72;;;13.01;100.00
23427;BME280;41148;45.420;10.952;2023-05-14T01:58:59;100583.00;;;13.16;100.00
23427;BME280;41148;45.420;10.952;2023-05-14T02:01:26;100580.75;;;13.06;100.00
23427;BME280;41148;45.420;10.952;2023-05-14T02:03:54;100581.56;;;13.08;100.00
23427;BME280;41148;45.420;10.952;2023-05-14T02:06:21;100579.63;;;13.11;100.00
23427;BME280;41148;45.420;10.952;2023-05-14T02:08:49;100586.84;;;13.09;100.00
23427;BME280;41148;45.420;10.952;2023-05-14T02:11:17;100578.16;;;13.04;100.00
23427;BME280;41148;45.420;10.952;2023-05-14T02:13:44;100578.22;;;13.03;100.00
23427;BME280;41148;45.420;10.952;2023-05-14T02:16:11;100584.00;;;12.90;100.00
23427;BME280;41148;45.420;10.952;2023-05-14T02:18:39;100580.41;;;12.92;100.00
23427;BME280;41148;45.420;10.952;2023-05-14T02:21:06;100581.19;;;12.95;100.00
23427;BME280;41148;45.420;10.952;2023-05-14T02:23:34;100571.41;;;12.94;100.00
23427;BME280;41148;45.420;10.952;2023-05-14T02:26:11;100574.81;;;12.98;100.00
23427;BME280;41148;45.420;10.952;2023-05-14T02:28:38;100567.75;;;12.97;100.00
23427;BME280;41148;45.420;10.952;2023-05-14T02:31:06;100574.69;;;13.01;100.00
23427;BME280;41148;45.420;10.952;2023-05-14T02:33:33;100564.13;;;12.98;100.00
23427;BME280;41148;45.420;10.952;2023-05-14T02:36:01;100568.75;;;12.94;100.00
23427;BME280;41148;45.420;10.952;2023-05-14T02:38:28;100568.84;;;12.91;100.00
23427;BME280;41148;45.420;10.952;2023-05-14T02:40:56;100562.63;;;12.90;100.00
23427;BME280;41148;45.420;10.952;2023-05-14T02:43:23;100565.19;;;12.94;100.00
23427;BME280;41148;45.420;10.952;2023-05-14T02:45:51;100564.38;;;12.92;100.00
23427;BME280;41148;45.420;10.952;2023-05-14T02:48:18;100554.59;;;12.90;100.00
23427;BME280;41148;45.420;10.952;2023-05-14T02:50:48;100546.66;;;12.89;100.00
23427;BME280;41148;45.420;10.952;2023-05-14T02:53:16;100546.78;;;12.86;100.00
23427;BME280;41148;45.420;10.952;2023-05-14T02:55:43;100543.25;;;12.85;100.00
23427;BME280;41148;45.420;10.952;2023-05-14T02:58:10;100551.13;;;12.88;100.00
23427;BME280;41148;45.420;10.952;2023-05-14T03:00:38;100552.00;;;12.89;100.00
23427;BME280;41148;45.420;10.952;2023-05-14T03:03:07;100538.63;;;12.89;100.00
23427;BME280;41148;45.420;10.952;2023-05-14T03:05:35;100545.78;;;12.88;100.00
23427;BME280;41148;45.420;10.952;2023-05-14T03:08:02;100544.78;;;12.91;100.00
23427;BME280;41148;45.420;10.952;2023-05-14T03:10:29;100532.63;;;12.82;100.00
23427;BME280;41148;45.420;10.952;2023-05-14T03:12:58;100541.59;;;12.81;100.00
23427;BME280;41148;45.420;10.952;2023-05-14T03:15:26;100530.72;;;12.86;100.00
23427;BME280;41148;45.420;10.952;2023-05-14T03:17:53;100531.66;;;12.85;100.00
23427;BME280;41148;45.420;10.952;2023-05-14T03:20:23;100532.84;;;12.78;100.00
23427;BME280;41148;45.420;10.952;2023-05-14T03:22:52;100528.44;;;12.77;100.00
23427;BME280;41148;45.420;10.952;2023-05-14T03:25:20;100524.81;;;12.78;100.00
23427;BME280;41148;45.420;10.952;2023-05-14T03:27:47;100526.84;;;12.71;100.00
23427;BME280;41148;45.420;10.952;2023-05-14T03:30:15;100530.66;;;12.66;100.00
23427;BME280;41148;45.420;10.952;2023-05-14T03:32:43;100534.06;;;12.69;100.00
23427;BME280;41148;45.420;10.952;2023-05-14T03:35:10;100522.88;;;12.59;100.00
23427;BME280;41148;45.420;10.952;2023-05-14T03:37:38;100525.47;;;12.61;100.00
23427;BME280;41148;45.420;10.952;2023-05-14T03:40:06;100531.59;;;12.65;100.00
23427;BME280;41148;45.420;10.952;2023-05-14T03:42:35;100523.50;;;12.66;100.00
23427;BME280;41148;45.420;10.952;2023-05-14T03:45:03;100522.72;;;12.63;100.00
23427;BME280;41148;45.420;10.952;2023-05-14T03:47:31;100528.72;;;12.69;100.00
23427;BME280;41148;45.420;10.952;2023-05-14T03:49:59;100540.06;;;12.76;100.00
23427;BME280;41148;45.420;10.952;2023-05-14T03:52:27;100525.63;;;12.80;100.00
23427;BME280;41148;45.420;10.952;2023-05-14T03:54:54;100522.88;;;12.81;100.00
23427;BME280;41148;45.420;10.952;2023-05-14T03:57:22;100531.66;;;12.85;100.00
23427;BME280;41148;45.420;10.952;2023-05-14T03:59:49;100539.84;;;12.80;100.00
23427;BME280;41148;45.420;10.952;2023-05-14T04:02:16;100522.88;;;12.81;100.00
23427;BME280;41148;45.420;10.952;2023-05-14T04:04:44;100513.88;;;12.84;100.00
23427;BME280;41148;45.420;10.952;2023-05-14T04:07:11;100524.44;;;12.87;100.00
23427;BME280;41148;45.420;10.952;2023-05-14T04:09:38;100529.66;;;12.90;100.00
23427;BME280;41148;45.420;10.952;2023-05-14T04:12:06;100529.66;;;12.90;100.00
23427;BME280;41148;45.420;10.952;2023-05-14T04:14:34;100524.25;;;12.92;100.00
23427;BME280;41148;45.420;10.952;2023-05-14T04:17:02;100520.72;;;12.91;100.00
23427;BME280;41148;45.420;10.952;2023-05-14T04:19:30;100527.50;;;13.00;100.00
23427;BME280;41148;45.420;10.952;2023-05-14T04:21:57;100531.91;;;13.01;100.00
23427;BME280;41148;45.420;10.952;2023-05-14T04:24:24;100526.38;;;13.05;100.00
23427;BME280;41148;45.420;10.952;2023-05-14T04:26:52;100521.91;;;13.06;100.00
23427;BME280;41148;45.420;10.952;2023-05-14T04:29:19;100510.06;;;13.11;100.00
23427;BME280;41148;45.420;10.952;2023-05-14T04:31:48;100525.16;;;13.14;100.00
23427;BME280;41148;45.420;10.952;2023-05-14T04:34:15;100520.78;;;13.11;100.00
23427;BME280;41148;45.420;10.952;2023-05-14T04:36:43;100514.63;;;13.09;100.00
23427;BME280;41148;45.420;10.952;2023-05-14T04:39:10;100524.13;;;13.16;100.00
23427;BME280;41148;45.420;10.952;2023-05-14T04:41:38;100526.81;;;13.16;100.00
23427;BME280;41148;45.420;10.952;2023-05-14T04:44:06;100529.72;;;13.10;100.00
23427;BME280;41148;45.420;10.952;2023-05-14T04:46:33;100528.63;;;13.16;100.00
23427;BME280;41148;45.420;10.952;2023-05-14T04:49:01;100531.09;;;13.22;100.00
23427;BME280;41148;45.420;10.952;2023-05-14T04:51:28;100537.59;;;13.15;100.00
23427;BME280;41148;45.420;10.952;2023-05-14T04:53:56;100535.09;;;13.10;100.00
23427;BME280;41148;45.420;10.952;2023-05-14T04:56:24;100542.38;;;13.07;100.00
23427;BME280;41148;45.420;10.952;2023-05-14T04:58:51;100538.38;;;12.95;100.00
23427;BME280;41148;45.420;10.952;2023-05-14T05:01:18;100539.19;;;12.97;100.00
23427;BME280;41148;45.420;10.952;2023-05-14T05:03:46;100540.06;;;12.98;100.00
23427;BME280;41148;45.420;10.952;2023-05-14T05:06:13;100548.88;;;13.00;100.00
23427;BME280;41148;45.420;10.952;2023-05-14T05:08:41;100548.72;;;13.04;100.00
23427;BME280;41148;45.420;10.952;2023-05-14T05:11:08;100544.66;;;13.16;100.00
23427;BME280;41148;45.420;10.952;2023-05-14T05:13:36;100546.91;;;13.05;100.00
23427;BME280;41148;45.420;10.952;2023-05-14T05:16:03;100543.72;;;13.17;100.00
23427;BME280;41148;45.420;10.952;2023-05-14T05:18:31;100547.84;;;13.04;100.00
23427;BME280;41148;45.420;10.952;2023-05-14T05:20:58;100541.16;;;12.92;100.00
23427;BME280;41148;45.420;10.952;2023-05-14T05:23:26;100542.97;;;12.92;100.00
23427;BME280;41148;45.420;10.952;2023-05-14T05:25:53;100545.28;;;13.01;100.00
23427;BME280;41148;45.420;10.952;2023-05-14T05:28:20;100541.81;;;12.99;100.00
23427;BME280;41148;45.420;10.952;2023-05-14T05:30:48;100549.91;;;12.97;100.00
23427;BME280;41148;45.420;10.952;2023-05-14T05:33:15;100533.72;;;13.00;100.00
23427;BME280;41148;45.420;10.952;2023-05-14T05:35:42;100542.50;;;13.04;100.00
23427;BME280;41148;45.420;10.952;2023-05-14T05:38:10;100543.59;;;12.98;100.00
23427;BME280;41148;45.420;10.952;2023-05-14T05:40:38;100545.72;;;12.90;100.00
23427;BME280;41148;45.420;10.952;2023-05-14T05:43:05;100549.97;;;12.96;100.00
23427;BME280;41148;45.420;10.952;2023-05-14T05:45:33;100552.56;;;12.97;100.00
23427;BME280;41148;45.420;10.952;2023-05-14T05:48:00;100556.97;;;12.98;100.00
23427;BME280;41148;45.420;10.952;2023-05-14T05:50:29;100548.81;;;13.01;100.00
23427;BME280;41148;45.420;10.952;2023-05-14T05:52:57;100540.13;;;12.96;100.00
23427;BME280;41148;45.420;10.952;2023-05-14T05:55:28;100537.38;;;12.98;100.00
23427;BME280;41148;45.420;10.952;2023-05-14T05:57:55;100543.59;;;12.98;100.00
23427;BME280;41148;45.420;10.952;2023-05-14T06:00:23;100557.22;;;12.92;100.00
23427;BME280;41148;45.420;10.952;2023-05-14T06:02:51;100543.09;;;12.88;100.00
23427;BME280;41148;45.420;10.952;2023-05-14T06:05:19;100549.16;;;12.94;100.00
23427;BME280;41148;45.420;10.952;2023-05-14T06:07:46;100540.88;;;13.00;100.00
23427;BME280;41148;45.420;10.952;2023-05-14T06:10:14;100537.19;;;13.02;100.00
23427;BME280;41148;45.420;10.952;2023-05-14T06:12:41;100533.03;;;13.17;100.00
23427;BME280;41148;45.420;10.952;2023-05-14T06:15:09;100541.06;;;13.17;100.00
23427;BME280;41148;45.420;10.952;2023-05-14T06:17:38;100541.50;;;13.06;100.00
23427;BME280;41148;45.420;10.952;2023-05-14T06:20:06;100536.16;;;13.06;100.00
23427;BME280;41148;45.420;10.952;2023-05-14T06:22:36;100537.09;;;13.05;100.00
23427;BME280;41148;45.420;10.952;2023-05-14T06:25:04;100543.00;;;13.13;100.00
23427;BME280;41148;45.420;10.952;2023-05-14T06:27:31;100534.84;;;13.16;100.00
23427;BME280;41148;45.420;10.952;2023-05-14T06:29:59;100537.31;;;13.23;100.00
23427;BME280;41148;45.420;10.952;2023-05-14T06:32:28;100538.44;;;13.15;100.00
23427;BME280;41148;45.420;10.952;2023-05-14T06:34:55;100532.22;;;13.15;100.00
23427;BME280;41148;45.420;10.952;2023-05-14T06:37:22;100533.09;;;13.15;100.00
23427;BME280;41148;45.420;10.952;2023-05-14T06:39:50;100532.00;;;13.21;100.00
23427;BME280;41148;45.420;10.952;2023-05-14T06:42:17;100542.59;;;13.24;100.00
23427;BME280;41148;45.420;10.952;2023-05-14T06:44:45;100532.81;;;13.23;100.00
23427;BME280;41148;45.420;10.952;2023-05-14T06:47:13;100535.44;;;13.25;100.00
23427;BME280;41148;45.420;10.952;2023-05-14T06:49:40;100519.44;;;13.23;100.00
23427;BME280;41148;45.420;10.952;2023-05-14T06:52:08;100520.03;;;13.30;100.00
23427;BME280;41148;45.420;10.952;2023-05-14T06:54:35;100519.94;;;13.33;100.00
23427;BME280;41148;45.420;10.952;2023-05-14T06:57:03;100514.69;;;13.30;100.00
23427;BME280;41148;45.420;10.952;2023-05-14T06:59:30;100522.72;;;13.30;100.00
23427;BME280;41148;45.420;10.952;2023-05-14T07:01:57;100519.06;;;13.32;100.00
23427;BME280;41148;45.420;10.952;2023-05-14T07:04:25;100521.13;;;13.26;100.00
23427;BME280;41148;45.420;10.952;2023-05-14T07:06:53;100522.94;;;13.25;100.00
23427;BME280;41148;45.420;10.952;2023-05-14T07:09:20;100526.47;;;13.26;100.00
23427;BME280;41148;45.420;10.952;2023-05-14T07:11:48;100518.63;;;13.21;100.00
23427;BME280;41148;45.420;10.952;2023-05-14T07:14:17;100528.56;;;13.17;100.00
23427;BME280;41148;45.420;10.952;2023-05-14T07:16:44;100528.53;;;13.19;100.00
23427;BME280;41148;45.420;10.952;2023-05-14T07:19:13;100520.38;;;13.22;100.00
23427;BME280;41148;45.420;10.952;2023-05-14T07:21:40;100510.84;;;13.37;100.00
23427;BME280;41148;45.420;10.952;2023-05-14T07:24:08;100512.41;;;13.42;100.00
23427;BME280;41148;45.420;10.952;2023-05-14T07:26:35;100508.84;;;13.42;100.00
23427;BME280;41148;45.420;10.952;2023-05-14T07:29:02;100498.06;;;13.43;100.00
23427;BME280;41148;45.420;10.952;2023-05-14T07:31:30;100499.94;;;13.41;100.00
23427;BME280;41148;45.420;10.952;2023-05-14T07:33:57;100493.78;;;13.39;100.00
23427;BME280;41148;45.420;10.952;2023-05-14T07:36:25;100494.25;;;13.49;100.00
23427;BME280;41148;45.420;10.952;2023-05-14T07:38:52;100507.53;;;13.52;100.00
23427;BME280;41148;45.420;10.952;2023-05-14T07:41:20;100500.53;;;13.48;100.00
23427;BME280;41148;45.420;10.952;2023-05-14T07:43:47;100494.59;;;13.41;100.00
23427;BME280;41148;45.420;10.952;2023-05-14T07:46:15;100498.00;;;13.45;100.00
23427;BME280;41148;45.420;10.952;2023-05-14T07:48:42;100487.31;;;13.45;100.00
23427;BME280;41148;45.420;10.952;2023-05-14T07:51:10;100485.25;;;13.52;100.00
23427;BME280;41148;45.420;10.952;2023-05-14T07:53:38;100481.34;;;13.59;100.00
23427;BME280;41148;45.420;10.952;2023-05-14T07:56:05;100481.63;;;13.53;100.00
23427;BME280;41148;45.420;10.952;2023-05-14T07:58:33;100485.56;;;13.64;100.00
23427;BME280;41148;45.420;10.952;2023-05-14T08:01:01;100476.66;;;13.64;100.00
23427;BME280;41148;45.420;10.952;2023-05-14T08:03:33;100478.47;;;13.63;100.00
23427;BME280;41148;45.420;10.952;2023-05-14T08:06:01;100463.94;;;13.69;100.00
23427;BME280;41148;45.420;10.952;2023-05-14T08:08:28;100468.22;;;13.73;100.00
23427;BME280;41148;45.420;10.952;2023-05-14T08:10:55;100474.22;;;13.78;100.00
23427;BME280;41148;45.420;10.952;2023-05-14T08:13:23;100458.84;;;13.83;100.00
23427;BME280;41148;45.420;10.952;2023-05-14T08:15:50;100463.66;;;13.75;100.00
23427;BME280;41148;45.420;10.952;2023-05-14T08:18:18;100460.28;;;13.71;100.00
23427;BME280;41148;45.420;10.952;2023-05-14T08:20:45;100457.78;;;13.67;100.00
23427;BME280;41148;45.420;10.952;2023-05-14T08:23:13;100455.25;;;13.64;100.00
23427;BME280;41148;45.420;10.952;2023-05-14T08:25:40;100459.59;;;13.66;100.00
23427;BME280;41148;45.420;10.952;2023-05-14T08:28:08;100449.97;;;13.62;100.00
23427;BME280;41148;45.420;10.952;2023-05-14T08:30:35;100456.44;;;13.57;100.00
23427;BME280;41148;45.420;10.952;2023-05-14T08:33:02;100455.31;;;13.62;100.00
23427;BME280;41148;45.420;10.952;2023-05-14T08:35:30;100459.66;;;13.65;100.00
23427;BME280;41148;45.420;10.952;2023-05-14T08:37:58;100458.94;;;13.61;100.00
23427;BME280;41148;45.420;10.952;2023-05-14T08:40:25;100456.31;;;13.60;100.00
23427;BME280;41148;45.420;10.952;2023-05-14T08:42:55;100452.91;;;13.56;100.00
23427;BME280;41148;45.420;10.952;2023-05-14T08:45:29;100459.66;;;13.65;100.00
23427;BME280;41148;45.420;10.952;2023-05-14T08:48:02;100453.44;;;13.64;100.00
23427;BME280;41148;45.420;10.952;2023-05-14T08:50:35;100464.22;;;13.63;100.00
23427;BME280;41148;45.420;10.952;2023-05-14T08:53:02;100451.97;;;13.57;100.00
23427;BME280;41148;45.420;10.952;2023-05-14T08:55:30;100455.81;;;13.52;100.00
23427;BME280;41148;45.420;10.952;2023-05-14T08:57:59;100456.72;;;13.51;100.00
23427;BME280;41148;45.420;10.952;2023-05-14T09:00:27;100450.63;;;13.47;100.00
23427;BME280;41148;45.420;10.952;2023-05-14T09:02:55;100455.97;;;13.47;100.00
23427;BME280;41148;45.420;10.952;2023-05-14T09:05:24;100459.66;;;13.44;100.00
23427;BME280;41148;45.420;10.952;2023-05-14T09:07:51;100440.94;;;13.44;100.00
23427;BME280;41148;45.420;10.952;2023-05-14T09:10:19;100450.09;;;13.39;100.00
23427;BME280;41148;45.420;10.952;2023-05-14T09:12:47;100459.59;;;13.46;100.00
23427;BME280;41148;45.420;10.952;2023-05-14T09:15:15;100458.88;;;13.42;100.00
23427;BME280;41148;45.420;10.952;2023-05-14T09:17:44;100457.78;;;13.46;100.00
23427;BME280;41148;45.420;10.952;2023-05-14T09:20:14;100451.50;;;13.48;100.00
23427;BME280;41148;45.420;10.952;2023-05-14T09:22:41;100452.97;;;13.55;100.00
23427;BME280;41148;45.420;10.952;2023-05-14T09:25:09;100446.94;;;13.50;100.00
23427;BME280;41148;45.420;10.952;2023-05-14T09:27:38;100443.69;;;13.43;100.00
23427;BME280;41148;45.420;10.952;2023-05-14T09:30:12;100444.22;;;13.51;100.00
23427;BME280;41148;45.420;10.952;2023-05-14T09:32:41;100436.25;;;13.50;100.00
23427;BME280;41148;45.420;10.952;2023-05-14T09:35:18;100443.13;;;13.55;100.00
23427;BME280;41148;45.420;10.952;2023-05-14T09:37:48;100443.22;;;13.54;100.00
23427;BME280;41148;45.420;10.952;2023-05-14T09:40:21;100433.53;;;13.51;100.00
23427;BME280;41148;45.420;10.952;2023-05-14T09:42:52;100433.56;;;13.50;100.00
23427;BME280;41148;45.420;10.952;2023-05-14T09:45:20;100437.78;;;13.55;100.00
23427;BME280;41148;45.420;10.952;2023-05-14T09:47:48;100428.03;;;13.54;100.00
23427;BME280;41148;45.420;10.952;2023-05-14T09:50:15;100433.09;;;13.60;100.00
23427;BME280;41148;45.420;10.952;2023-05-14T09:52:43;100418.09;;;13.56;100.00
23427;BME280;41148;45.420;10.952;2023-05-14T09:55:10;100423.13;;;13.64;100.00
23427;BME280;41148;45.420;10.952;2023-05-14T09:57:38;100422.91;;;13.68;100.00
23427;BME280;41148;45.420;10.952;2023-05-14T10:00:06;100433.63;;;13.68;100.00
23427;BME280;41148;45.420;10.952;2023-05-14T10:02:36;100416.75;;;13.66;100.00
23427;BME280;41148;45.420;10.952;2023-05-14T10:05:04;100415.81;;;13.67;100.00
23427;BME280;41148;45.420;10.952;2023-05-14T10:07:39;100415.47;;;13.75;100.00
23427;BME280;41148;45.420;10.952;2023-05-14T10:10:11;100405.50;;;13.79;100.00
23427;BME280;41148;45.420;10.952;2023-05-14T10:12:39;100407.91;;;13.85;100.00
23427;BME280;41148;45.420;10.952;2023-05-14T10:15:19;100397.97;;;13.87;100.00
23427;BME280;41148;45.420;10.952;2023-05-14T10:17:54;100409.78;;;13.83;100.00
23427;BME280;41148;45.420;10.952;2023-05-14T10:20:23;100401.88;;;13.80;100.00
23427;BME280;41148;45.420;10.952;2023-05-14T10:22:51;100403.47;;;13.84;100.00
23427;BME280;41148;45.420;10.952;2023-05-14T10:25:20;100404.13;;;13.89;100.00
23427;BME280;41148;45.420;10.952;2023-05-14T10:27:47;100405.13;;;13.86;100.00
23427;BME280;41148;45.420;10.952;2023-05-14T10:30:15;100403.13;;;13.91;100.00
23427;BME280;41148;45.420;10.952;2023-05-14T10:32:42;100401.41;;;13.90;100.00
23427;BME280;41148;45.420;10.952;2023-05-14T10:35:18;100408.19;;;13.97;100.00
23427;BME280;41148;45.420;10.952;2023-05-14T10:37:50;100399.09;;;14.01;100.00
23427;BME280;41148;45.420;10.952;2023-05-14T10:40:22;100407.63;;;14.10;100.00
23427;BME280;41148;45.420;10.952;2023-05-14T10:42:51;100393.81;;;14.19;100.00
23427;BME280;41148;45.420;10.952;2023-05-14T10:45:21;100402.72;;;14.19;100.00
23427;BME280;41148;45.420;10.952;2023-05-14T10:47:50;100396.50;;;14.19;100.00
23427;BME280;41148;45.420;10.952;2023-05-14T10:50:18;100391.50;;;14.30;100.00
23427;BME280;41148;45.420;10.952;2023-05-14T10:52:50;100393.78;;;14.38;100.00
23427;BME280;41148;45.420;10.952;2023-05-14T10:55:19;100389.06;;;14.43;100.00
23427;BME280;41148;45.420;10.952;2023-05-14T10:57:48;100390.88;;;14.42;100.00
23427;BME280;41148;45.420;10.952;2023-05-14T11:00:15;100392.84;;;14.39;100.00
23427;BME280;41148;45.420;10.952;2023-05-14T11:02:43;100387.22;;;14.45;100.00
23427;BME280;41148;45.420;10.952;2023-05-14T11:05:14;100383.72;;;14.43;100.00
23427;BME280;41148;45.420;10.952;2023-05-14T11:07:46;100378.22;;;14.46;100.00
23427;BME280;41148;45.420;10.952;2023-05-14T11:10:17;100376.41;;;14.46;100.00
23427;BME280;41148;45.420;10.952;2023-05-14T11:12:46;100379.47;;;14.39;99.10
23427;BME280;41148;45.420;10.952;2023-05-14T11:15:18;100375.53;;;14.27;99.36
23427;BME280;41148;45.420;10.952;2023-05-14T11:17:47;100375.91;;;14.38;98.46
23427;BME280;41148;45.420;10.952;2023-05-14T11:20:16;100377.22;;;14.48;98.16
23427;BME280;41148;45.420;10.952;2023-05-14T11:22:46;100378.44;;;14.41;97.19
23427;BME280;41148;45.420;10.952;2023-05-14T11:25:14;100361.56;;;14.39;95.65
23427;BME280;41148;45.420;10.952;2023-05-14T11:27:43;100375.53;;;14.46;95.27
23427;BME280;41148;45.420;10.952;2023-05-14T11:30:12;100380.53;;;14.53;96.60
23427;BME280;41148;45.420;10.952;2023-05-14T11:32:41;100367.41;;;14.47;97.48
23427;BME280;41148;45.420;10.952;2023-05-14T11:35:09;100354.22;;;14.43;97.55
23427;BME280;41148;45.420;10.952;2023-05-14T11:37:37;100355.47;;;14.54;96.58
23427;BME280;41148;45.420;10.952;2023-05-14T11:40:07;100361.44;;;14.78;96.49
23427;BME280;41148;45.420;10.952;2023-05-14T11:42:38;100364.50;;;14.71;95.89
23427;BME280;41148;45.420;10.952;2023-05-14T11:45:06;100366.38;;;14.69;96.00
23427;BME280;41148;45.420;10.952;2023-05-14T11:47:39;100359.41;;;14.65;94.36
23427;BME280;41148;45.420;10.952;2023-05-14T11:50:08;100348.63;;;14.66;93.33
23427;BME280;41148;45.420;10.952;2023-05-14T11:52:39;100353.75;;;14.71;91.85
23427;BME280;41148;45.420;10.952;2023-05-14T11:55:11;100345.88;;;14.68;93.40
23427;BME280;41148;45.420;10.952;2023-05-14T11:57:44;100348.16;;;14.75;95.03
23427;BME280;41148;45.420;10.952;2023-05-14T12:00:13;100339.16;;;14.76;95.03
23427;BME280;41148;45.420;10.952;2023-05-14T12:02:40;100338.25;;;14.77;92.27
23427;BME280;41148;45.420;10.952;2023-05-14T12:05:11;100340.34;;;14.71;92.27
23427;BME280;41148;45.420;10.952;2023-05-14T12:07:39;100347.63;;;14.69;93.03
23427;BME280;41148;45.420;10.952;2023-05-14T12:10:07;100339.94;;;14.61;89.53
23427;BME280;41148;45.420;10.952;2023-05-14T12:12:35;100333.00;;;14.57;90.94
23427;BME280;41148;45.420;10.952;2023-05-14T12:15:13;100332.94;;;14.58;92.18
23427;BME280;41148;45.420;10.952;2023-05-14T12:17:40;100331.34;;;14.54;94.32
23427;BME280;41148;45.420;10.952;2023-05-14T12:20:09;100326.13;;;14.51;95.00
23427;BME280;41148;45.420;10.952;2023-05-14T12:22:37;100328.91;;;14.50;94.29
23427;BME280;41148;45.420;10.952;2023-05-14T12:25:10;100315.50;;;14.50;97.47
23427;BME280;41148;45.420;10.952;2023-05-14T12:27:39;100321.28;;;14.41;95.27
23427;BME280;41148;45.420;10.952;2023-05-14T12:30:07;100313.09;;;14.44;95.69
23427;BME280;41148;45.420;10.952;2023-05-14T12:32:38;100303.06;;;14.30;96.77
23427;BME280;41148;45.420;10.952;2023-05-14T12:35:08;100292.88;;;14.19;99.97
23427;BME280;41148;45.420;10.952;2023-05-14T12:37:36;100309.22;;;14.13;97.81
23427;BME280;41148;45.420;10.952;2023-05-14T12:40:06;100320.97;;;14.11;98.12
23427;BME280;41148;45.420;10.952;2023-05-14T12:42:36;100327.91;;;14.15;100.00
23427;BME280;41148;45.420;10.952;2023-05-14T12:45:04;100330.44;;;14.18;100.00